createdAt,value
2018-01-20T15:02:16.212Z,6.14
2018-01-20T15:04:17.792Z,6.04
2018-01-20T15:06:19.284Z,6.14
2018-01-20T15:08:20.665Z,6.10
2018-01-20T15:10:22.060Z,6.09
2018-01-20T15:12:23.497Z,6.10
2018-01-20T15:14:24.941Z,6.13
2018-01-20T15:16:26.477Z,6.14
2018-01-20T15:18:27.898Z,6.09
2018-01-20T15:20:29.361Z,6.13
2018-01-20T15:22:31.276Z,6.21
2018-01-20T15:24:32.721Z,6.26
2018-01-20T15:26:34.298Z,6.22
2018-01-20T15:28:35.796Z,6.30
2018-01-20T15:30:37.280Z,6.33
2018-01-20T15:32:38.847Z,6.40
2018-01-20T15:34:40.349Z,6.44
2018-01-20T15:36:41.978Z,6.35
2018-01-20T15:38:43.475Z,6.50
2018-01-20T15:40:44.928Z,6.43
2018-01-20T15:42:46.400Z,6.48
2018-01-20T15:44:47.899Z,6.51
2018-01-20T15:46:49.379Z,6.46
2018-01-20T15:48:50.797Z,6.48
2018-01-20T15:50:52.217Z,6.44
2018-01-20T15:52:53.648Z,6.51
2018-01-20T15:54:55.073Z,6.47
2018-01-20T15:56:56.497Z,6.40
2018-01-20T15:58:57.916Z,6.33
2018-01-20T16:00:59.354Z,6.41
2018-01-20T16:03:00.868Z,6.38
2018-01-20T16:05:02.328Z,6.40
2018-01-20T16:07:03.883Z,6.51
2018-01-20T16:09:05.440Z,6.46
2018-01-20T16:11:06.887Z,6.44
2018-01-20T16:13:08.312Z,6.38
2018-01-20T16:15:09.914Z,6.44
2018-01-20T16:17:11.700Z,6.47
2018-01-20T16:19:13.120Z,6.51
2018-01-20T16:21:14.686Z,6.51
2018-01-20T16:23:16.215Z,6.48
2018-01-20T16:25:17.723Z,6.43
2018-01-20T16:27:19.189Z,6.43
2018-01-20T16:29:20.662Z,6.46
2018-01-20T16:31:22.160Z,6.50
2018-01-20T16:33:23.590Z,6.46
2018-01-20T16:35:24.983Z,6.51
2018-01-20T16:37:26.427Z,6.50
2018-01-20T16:39:27.926Z,6.53
2018-01-20T16:41:29.328Z,6.50
2018-01-20T16:43:30.736Z,6.46
2018-01-20T16:45:32.135Z,6.47
2018-01-20T16:47:33.553Z,6.47
2018-01-20T16:49:34.963Z,6.35
2018-01-20T16:51:36.378Z,6.40
2018-01-20T16:53:37.783Z,6.32
2018-01-20T16:55:39.188Z,6.43
2018-01-20T16:57:40.596Z,6.40
2018-01-20T16:59:42.001Z,6.38
2018-01-20T17:01:43.408Z,6.46
2018-01-20T17:03:44.813Z,6.36
2018-01-20T17:05:46.216Z,6.36
2018-01-20T17:07:48.329Z,6.33
2018-01-20T17:09:49.731Z,6.38
2018-01-20T17:11:51.164Z,6.46
2018-01-20T17:13:52.565Z,6.38
2018-01-20T17:15:53.985Z,6.40
2018-01-20T17:17:55.386Z,6.43
2018-01-20T17:19:56.820Z,6.43
2018-01-20T17:21:58.228Z,6.48
2018-01-20T17:23:59.632Z,6.32
2018-01-20T17:26:01.040Z,6.40
2018-01-20T17:28:02.460Z,6.36
2018-01-20T17:30:03.906Z,6.35
2018-01-20T17:32:05.354Z,6.41
2018-01-20T17:34:06.759Z,6.38
2018-01-20T17:36:08.250Z,6.36
2018-01-20T17:38:09.962Z,6.26
2018-01-20T17:40:12.047Z,6.35
2018-01-20T17:42:13.477Z,6.32
2018-01-20T17:44:14.888Z,6.38
2018-01-20T17:46:16.425Z,6.44
2018-01-20T17:48:17.828Z,6.41
2018-01-20T17:50:19.249Z,6.46
2018-01-20T17:52:20.646Z,6.46
2018-01-20T17:54:22.074Z,6.46
2018-01-20T17:56:23.480Z,6.46
2018-01-20T17:58:24.908Z,6.41
2018-01-20T18:00:26.354Z,6.44
2018-01-20T18:02:27.856Z,6.30
2018-01-20T18:04:29.314Z,6.09
2018-01-20T18:06:30.753Z,5.89
2018-01-20T18:08:32.147Z,5.85
2018-01-20T18:10:33.574Z,5.95
2018-01-20T18:12:34.985Z,5.67
2018-01-20T18:14:36.394Z,5.70
2018-01-20T18:16:37.809Z,5.82
2018-01-20T18:18:39.213Z,5.89
2018-01-20T18:20:40.708Z,5.92
2018-01-20T18:22:42.116Z,5.98
2018-01-20T18:24:43.529Z,6.13
2018-01-20T18:26:44.930Z,6.10
2018-01-20T18:28:46.350Z,6.28
2018-01-20T18:30:47.756Z,6.11
2018-01-20T18:32:49.173Z,6.26
2018-01-20T18:34:50.579Z,6.25
2018-01-20T18:36:51.984Z,6.30
2018-01-20T18:38:53.388Z,6.30
2018-01-20T18:40:54.789Z,6.33
2018-01-20T18:42:56.220Z,6.26
2018-01-20T18:44:57.637Z,6.33
2018-01-20T18:46:59.089Z,6.30
2018-01-20T18:49:00.498Z,6.33
2018-01-20T18:51:01.933Z,6.29
2018-01-20T18:53:03.343Z,6.30
2018-01-20T18:55:04.749Z,6.35
2018-01-20T18:57:06.154Z,6.33
2018-01-20T18:59:07.618Z,6.33
2018-01-20T19:01:09.071Z,6.35
2018-01-20T19:03:10.486Z,6.43
2018-01-20T19:05:11.899Z,6.38
2018-01-20T19:07:13.309Z,6.29
2018-01-20T19:09:14.707Z,6.30
2018-01-20T19:11:16.125Z,6.33
2018-01-20T19:13:17.514Z,6.36
2018-01-20T19:15:18.931Z,6.33
2018-01-20T19:17:20.342Z,6.35
2018-01-20T19:19:21.761Z,6.33
2018-01-20T19:21:23.167Z,6.40
2018-01-20T19:23:24.570Z,6.40
2018-01-20T19:25:25.967Z,6.46
2018-01-20T19:27:27.381Z,6.35
2018-01-20T19:29:28.796Z,6.30
2018-01-20T19:31:30.203Z,6.32
2018-01-20T19:33:31.664Z,6.29
2018-01-20T19:35:33.085Z,6.28
2018-01-20T19:37:34.547Z,6.22
2018-01-20T19:39:36.004Z,6.11
2018-01-20T19:41:37.553Z,6.29
2018-01-20T19:43:38.988Z,6.28
2018-01-20T19:45:40.500Z,6.29
2018-01-20T19:47:41.966Z,6.29
2018-01-20T19:49:43.364Z,6.29
2018-01-20T19:51:44.790Z,6.33
2018-01-20T19:53:46.215Z,6.29
2018-01-20T19:55:47.634Z,6.32
2018-01-20T19:57:49.031Z,6.36
2018-01-20T19:59:50.442Z,6.32
2018-01-20T20:01:51.851Z,6.26
2018-01-20T20:03:53.260Z,6.11
2018-01-20T20:05:54.665Z,6.03
2018-01-20T20:07:56.071Z,5.92
2018-01-20T20:09:57.473Z,6.06
2018-01-20T20:11:58.887Z,6.10
2018-01-20T20:14:00.303Z,6.00
2018-01-20T20:16:01.707Z,5.92
2018-01-20T20:18:03.107Z,5.88
2018-01-20T20:20:04.506Z,5.89
2018-01-20T20:22:05.920Z,5.86
2018-01-20T20:24:07.323Z,5.81
2018-01-20T20:26:08.773Z,5.70
2018-01-20T20:28:10.133Z,5.68
2018-01-20T20:30:11.544Z,5.70
2018-01-20T20:32:12.949Z,5.64
2018-01-20T20:34:14.356Z,5.75
2018-01-20T20:36:15.774Z,5.74
2018-01-20T20:38:17.194Z,5.77
2018-01-20T20:40:18.608Z,5.77
2018-01-20T20:42:20.014Z,5.83
2018-01-20T20:44:21.422Z,5.91
2018-01-20T20:46:22.829Z,5.98
2018-01-20T20:48:24.257Z,5.98
2018-01-20T20:50:25.677Z,5.95
2018-01-20T20:52:27.102Z,6.07
2018-01-20T20:54:28.505Z,6.11
2018-01-20T20:56:29.918Z,6.16
2018-01-20T20:58:31.322Z,6.18
2018-01-20T21:00:32.728Z,6.18
2018-01-20T21:02:34.136Z,6.16
2018-01-20T21:04:35.536Z,6.21
2018-01-20T21:06:36.944Z,6.11
2018-01-20T21:08:38.354Z,6.18
2018-01-20T21:10:39.764Z,6.19
2018-01-20T21:12:41.170Z,6.10
2018-01-20T21:14:42.586Z,6.14
2018-01-20T21:16:44.186Z,6.18
2018-01-20T21:18:45.701Z,6.13
2018-01-20T21:20:47.180Z,6.10
2018-01-20T21:22:48.663Z,6.10
2018-01-20T21:24:50.068Z,6.07
2018-01-20T21:26:51.475Z,6.13
2018-01-20T21:28:52.881Z,6.14
2018-01-20T21:30:54.285Z,6.07
2018-01-20T21:32:55.697Z,6.13
2018-01-20T21:34:57.203Z,6.10
2018-01-20T21:36:58.599Z,6.09
2018-01-20T21:39:00.045Z,6.07
2018-01-20T21:41:01.451Z,6.07
2018-01-20T21:43:02.965Z,6.06
2018-01-20T21:45:04.441Z,6.03
2018-01-20T21:47:05.899Z,6.06
2018-01-20T21:49:07.395Z,6.01
2018-01-20T21:51:08.811Z,6.00
2018-01-20T21:53:10.295Z,6.04
2018-01-20T21:55:11.755Z,5.98
2018-01-20T21:57:13.278Z,5.98
2018-01-20T21:59:14.707Z,5.95
2018-01-20T22:01:16.146Z,6.01
2018-01-20T22:03:17.990Z,6.00
2018-01-20T22:05:19.444Z,6.00
2018-01-20T22:07:20.901Z,6.00
2018-01-20T22:09:22.382Z,6.01
2018-01-20T22:11:24.684Z,5.93
2018-01-20T22:13:31.267Z,5.95
2018-01-20T22:15:32.721Z,6.06
2018-01-20T22:17:34.205Z,6.00
2018-01-20T22:19:35.984Z,5.96
2018-01-20T22:21:38.449Z,5.96
2018-01-20T22:23:39.870Z,5.95
2018-01-20T22:25:41.421Z,5.89
2018-01-20T22:27:42.918Z,5.68
2018-01-20T22:29:44.525Z,5.68
2018-01-20T22:31:46.015Z,5.68
2018-01-20T22:33:47.461Z,5.66
2018-01-20T22:35:48.998Z,5.66
2018-01-20T22:37:50.625Z,5.59
2018-01-20T22:39:52.136Z,5.63
2018-01-20T22:41:53.607Z,5.50
2018-01-20T22:43:55.258Z,5.45
2018-01-20T22:45:56.767Z,5.41
2018-01-20T22:47:58.251Z,5.45
2018-01-20T22:49:59.692Z,5.37
2018-01-20T22:52:01.237Z,5.32
2018-01-20T22:54:03.000Z,5.40
2018-01-20T22:56:04.486Z,5.38
2018-01-20T22:58:05.956Z,5.38
2018-01-20T23:00:07.453Z,5.53
2018-01-20T23:02:09.575Z,5.55
2018-01-20T23:04:11.058Z,5.59
2018-01-20T23:06:12.510Z,5.55
2018-01-20T23:08:14.829Z,5.56
2018-01-20T23:10:16.304Z,5.70
2018-01-20T23:12:18.163Z,5.67
2018-01-20T23:14:19.639Z,5.73
2018-01-20T23:16:21.111Z,5.77
2018-01-20T23:18:22.588Z,5.78
2018-01-20T23:20:24.101Z,5.91
2018-01-20T23:22:26.276Z,5.77
2018-01-20T23:24:27.750Z,5.83
2018-01-20T23:26:29.210Z,5.75
2018-01-20T23:28:30.699Z,5.55
2018-01-20T23:30:32.210Z,5.55
2018-01-20T23:32:34.565Z,5.67
2018-01-20T23:34:36.060Z,5.59
2018-01-20T23:36:37.524Z,5.57
2018-01-20T23:38:38.989Z,5.55
2018-01-20T23:40:40.469Z,5.46
2018-01-20T23:42:41.931Z,5.25
2018-01-20T23:44:43.404Z,5.31
2018-01-20T23:46:44.878Z,5.30
2018-01-20T23:48:46.325Z,5.37
2018-01-20T23:50:47.819Z,5.41
2018-01-20T23:52:49.303Z,5.41
2018-01-20T23:54:50.761Z,5.41
2018-01-20T23:56:52.245Z,5.48
2018-01-20T23:58:53.733Z,5.50
